Washta, Iowa
Current Conditions -  °F | °C
As of 10:15 AM on Wednesday 22 Oct 2014 (Local Time) from KCKP Reporting Station
Clear Clear  
Wind Chill: 56°   Ceiling: Unl
Heat Index: 56°   Visibility: 10mi
Dew Point: 45°   Wind: 14mph
Humidity: 65%   Direction: 160°SSE
Pressure: 30.09"   Gusts: 21mph
Location:  42.58°N, 95.72°W
Report Text: KCKP 221515Z AUTO 16012G18KT 10SM CLR 13/07 A3009 RMK AO2 T01340070
Loading
Personal Weather Stations






























Interactive Weather Map New forecast layout! Learn more

10-Day Weather Forecast

Advertisements
Track Severe Weather on mobile